createdAt,value
2022-08-27T00:01:49.583Z,3.65
2022-08-27T00:04:16.929Z,3.17
2022-08-27T00:06:47.412Z,4.13
2022-08-27T00:09:14.854Z,4.30
2022-08-27T00:11:43.816Z,3.20
2022-08-27T00:14:11.433Z,4.47
2022-08-27T00:16:39.511Z,4.05
2022-08-27T00:19:06.902Z,3.65
2022-08-27T00:21:34.288Z,4.00
2022-08-27T00:24:01.558Z,3.47
2022-08-27T00:26:29.275Z,2.72
2022-08-27T00:28:57.387Z,3.65
2022-08-27T00:31:27.333Z,3.50
2022-08-27T00:33:55.638Z,4.50
2022-08-27T00:36:22.992Z,3.45
2022-08-27T00:38:53.794Z,3.35
2022-08-27T00:41:21.940Z,3.58
2022-08-27T00:43:54.046Z,3.17
2022-08-27T00:46:44.819Z,3.20
2022-08-27T00:49:19.629Z,3.70
2022-08-27T00:52:00.619Z,3.60
2022-08-27T00:54:28.805Z,3.60
2022-08-27T00:59:29.357Z,3.78
2022-08-27T01:02:16.698Z,4.13
2022-08-27T01:04:47.583Z,3.83
2022-08-27T01:07:14.847Z,3.50
2022-08-27T01:09:45.153Z,3.35
2022-08-27T01:12:14.630Z,3.60
2022-08-27T01:14:44.563Z,3.75
2022-08-27T01:17:13.541Z,3.00
2022-08-27T01:19:40.476Z,3.88
2022-08-27T01:22:30.961Z,3.47
2022-08-27T01:25:02.768Z,3.50
2022-08-27T01:27:34.507Z,3.22
2022-08-27T01:30:02.713Z,3.45
2022-08-27T01:32:33.912Z,3.45
2022-08-27T01:35:02.736Z,3.03
2022-08-27T01:37:29.959Z,2.70
2022-08-27T01:40:01.800Z,3.55
2022-08-27T01:42:40.232Z,3.42
2022-08-27T01:45:38.637Z,3.45
2022-08-27T01:48:08.239Z,3.42
2022-08-27T01:50:39.050Z,3.45
2022-08-27T01:53:12.812Z,3.55
2022-08-27T01:55:43.456Z,3.35
2022-08-27T01:58:16.309Z,3.03
2022-08-27T02:00:46.916Z,3.45
2022-08-27T02:03:14.074Z,3.60
2022-08-27T02:05:42.265Z,3.47
2022-08-27T02:08:13.484Z,3.38
2022-08-27T02:10:40.794Z,3.58
2022-08-27T02:13:08.465Z,3.00
2022-08-27T02:15:40.500Z,2.88
2022-08-27T02:18:08.507Z,3.42
2022-08-27T02:20:37.108Z,3.88
2022-08-27T02:23:05.080Z,3.40
2022-08-27T02:25:34.164Z,3.33
2022-08-27T02:28:02.150Z,3.25
2022-08-27T02:30:32.227Z,2.58
2022-08-27T02:33:01.130Z,3.10
2022-08-27T02:35:30.300Z,3.08
2022-08-27T02:37:58.453Z,3.40
2022-08-27T02:40:26.466Z,3.53
2022-08-27T02:42:54.109Z,3.42
2022-08-27T02:45:21.820Z,3.78
2022-08-27T02:47:48.918Z,3.33
2022-08-27T02:50:17.449Z,3.97
2022-08-27T02:52:46.470Z,2.97
2022-08-27T02:55:17.253Z,2.72
2022-08-27T02:57:45.614Z,4.13
2022-08-27T03:00:16.417Z,4.00
2022-08-27T03:03:10.817Z,3.65
2022-08-27T03:05:39.796Z,3.63
2022-08-27T03:08:07.957Z,3.58
2022-08-27T03:10:35.373Z,4.72
2022-08-27T03:13:02.789Z,3.95
2022-08-27T03:15:29.838Z,3.45
2022-08-27T03:18:15.462Z,5.03
2022-08-27T03:20:44.700Z,4.65
2022-08-27T03:23:14.733Z,4.15
2022-08-27T03:25:51.508Z,3.28
2022-08-27T03:28:23.294Z,4.32
2022-08-27T03:30:59.025Z,3.33
2022-08-27T03:33:29.142Z,3.85
2022-08-27T03:35:56.378Z,3.72
2022-08-27T03:38:25.204Z,3.70
2022-08-27T03:40:55.108Z,3.75
2022-08-27T03:43:23.579Z,3.50
2022-08-27T03:46:01.851Z,3.40
2022-08-27T03:48:32.050Z,4.13
2022-08-27T03:50:59.800Z,3.55
2022-08-27T03:53:28.355Z,3.92
2022-08-27T03:55:55.581Z,8.00
2022-08-27T03:58:22.706Z,9.45
2022-08-27T04:00:49.715Z,8.95
2022-08-27T04:03:19.870Z,8.43
2022-08-27T04:05:52.885Z,9.60
2022-08-27T04:08:20.189Z,12.02
2022-08-27T04:10:48.015Z,10.90
2022-08-27T04:13:15.410Z,6.82
2022-08-27T04:15:44.705Z,7.43
2022-08-27T04:18:12.768Z,5.50
2022-08-27T04:20:39.786Z,4.38
2022-08-27T04:23:07.232Z,4.40
2022-08-27T04:25:36.575Z,4.53
2022-08-27T04:28:03.924Z,3.67
2022-08-27T04:30:31.557Z,3.53
2022-08-27T04:32:59.485Z,3.95
2022-08-27T04:35:26.856Z,3.78
2022-08-27T04:37:54.356Z,3.67
2022-08-27T04:40:21.409Z,4.60
2022-08-27T04:42:52.864Z,4.05
2022-08-27T04:45:21.330Z,3.60
2022-08-27T04:47:48.675Z,4.28
2022-08-27T04:50:16.187Z,4.63
2022-08-27T04:52:43.688Z,4.97
2022-08-27T04:55:11.810Z,3.50
2022-08-27T05:00:14.083Z,4.25
2022-08-27T05:02:41.126Z,4.68
2022-08-27T05:05:15.451Z,4.85
2022-08-27T05:07:43.991Z,4.53
2022-08-27T05:10:14.192Z,3.78
2022-08-27T05:12:44.262Z,4.05
2022-08-27T05:15:12.018Z,3.30
2022-08-27T05:17:39.125Z,5.78
2022-08-27T05:20:08.434Z,3.83
2022-08-27T05:22:39.734Z,3.80
2022-08-27T05:25:08.082Z,4.10
2022-08-27T05:30:02.411Z,3.78
2022-08-27T05:32:29.655Z,3.85
2022-08-27T05:34:56.806Z,4.47
2022-08-27T05:37:24.251Z,3.85
2022-08-27T05:39:51.307Z,4.03
2022-08-27T05:42:19.777Z,3.95
2022-08-27T05:44:47.090Z,3.90
2022-08-27T05:47:14.116Z,4.50
2022-08-27T05:49:41.340Z,4.05
2022-08-27T05:52:12.695Z,3.97
2022-08-27T05:54:50.089Z,3.40
2022-08-27T05:57:17.855Z,3.75
2022-08-27T06:00:03.658Z,4.07
2022-08-27T06:02:31.225Z,4.70
2022-08-27T06:04:58.555Z,3.75
2022-08-27T06:07:25.655Z,3.90
2022-08-27T06:09:52.938Z,4.18
2022-08-27T06:12:28.067Z,4.78
2022-08-27T06:14:56.647Z,4.72
2022-08-27T06:17:23.834Z,3.78
2022-08-27T06:19:51.157Z,4.40
2022-08-27T06:22:18.425Z,4.10
2022-08-27T06:24:46.715Z,4.90
2022-08-27T06:27:22.594Z,4.78
2022-08-27T06:29:51.497Z,4.30
2022-08-27T06:32:18.856Z,4.53
2022-08-27T06:34:45.807Z,4.72
2022-08-27T06:37:13.115Z,4.95
2022-08-27T06:39:40.606Z,4.95
2022-08-27T06:42:11.999Z,4.88
2022-08-27T06:44:40.405Z,4.97
2022-08-27T06:49:58.877Z,4.57
2022-08-27T06:52:26.519Z,4.28
2022-08-27T06:57:37.614Z,5.32
2022-08-27T07:00:07.672Z,4.47
2022-08-27T07:02:35.090Z,4.78
2022-08-27T07:05:12.061Z,5.13
2022-08-27T07:07:44.179Z,3.90
2022-08-27T07:10:15.392Z,4.70
2022-08-27T07:12:51.160Z,4.95
2022-08-27T07:15:25.898Z,3.40
2022-08-27T07:17:58.840Z,5.03
2022-08-27T07:20:29.569Z,5.78
2022-08-27T07:23:03.270Z,5.03
2022-08-27T07:25:48.159Z,4.78
2022-08-27T07:28:16.342Z,4.82
2022-08-27T07:30:43.659Z,4.10
2022-08-27T07:33:11.349Z,5.00
2022-08-27T07:35:40.012Z,5.22
2022-08-27T07:38:13.281Z,4.93
2022-08-27T07:43:40.911Z,4.50
2022-08-27T07:46:08.354Z,5.13
2022-08-27T07:48:38.001Z,4.90
2022-08-27T07:51:05.629Z,5.40
2022-08-27T07:53:35.431Z,4.55
2022-08-27T07:56:04.540Z,4.57
2022-08-27T08:01:34.132Z,4.20
2022-08-27T08:04:01.506Z,4.35
2022-08-27T08:06:32.639Z,4.40
2022-08-27T08:09:13.121Z,3.30
2022-08-27T08:11:53.320Z,4.70
2022-08-27T08:14:23.480Z,5.05
2022-08-27T08:16:50.945Z,5.30
2022-08-27T08:19:20.707Z,4.80
2022-08-27T08:21:47.817Z,5.60
2022-08-27T08:24:18.266Z,5.93
2022-08-27T08:26:45.484Z,5.85
2022-08-27T08:29:18.058Z,5.85
2022-08-27T08:31:50.411Z,6.10
2022-08-27T08:34:19.782Z,6.53
2022-08-27T08:36:53.990Z,5.97
2022-08-27T08:39:22.552Z,4.90
2022-08-27T08:41:58.371Z,6.07
2022-08-27T08:45:07.892Z,5.90
2022-08-27T08:47:51.744Z,5.25
2022-08-27T08:51:04.728Z,6.35
2022-08-27T08:53:39.746Z,6.53
2022-08-27T08:56:29.585Z,6.28
2022-08-27T08:59:10.357Z,6.03
2022-08-27T09:04:35.739Z,6.40
2022-08-27T09:07:31.149Z,7.30
2022-08-27T09:10:27.029Z,6.15
2022-08-27T09:12:59.438Z,5.55
2022-08-27T09:15:33.913Z,6.15
2022-08-27T09:18:14.775Z,6.30
2022-08-27T09:20:48.331Z,6.70
2022-08-27T09:23:28.447Z,6.30
2022-08-27T09:25:56.537Z,6.20
2022-08-27T09:35:13.937Z,6.55
2022-08-27T09:38:07.576Z,6.55
2022-08-27T09:40:52.107Z,5.75
2022-08-27T09:43:29.398Z,7.18
2022-08-27T09:46:21.730Z,7.10
2022-08-27T09:52:48.848Z,7.03
2022-08-27T09:55:38.051Z,6.05
2022-08-27T09:58:30.615Z,6.63
2022-08-27T10:01:21.258Z,6.10
2022-08-27T10:03:55.360Z,6.47
2022-08-27T10:06:33.048Z,6.82
2022-08-27T10:12:23.263Z,6.45
2022-08-27T10:14:55.364Z,6.80
2022-08-27T10:17:28.963Z,6.68
2022-08-27T10:20:17.258Z,6.22
2022-08-27T10:27:08.661Z,5.95
2022-08-27T10:29:52.153Z,5.88
2022-08-27T10:32:55.236Z,8.13
2022-08-27T10:35:28.543Z,6.43
2022-08-27T10:38:21.835Z,6.03
2022-08-27T10:41:02.813Z,6.97
2022-08-27T10:44:02.347Z,6.90
2022-08-27T10:47:11.265Z,6.18
2022-08-27T10:49:58.932Z,5.90
2022-08-27T10:52:53.438Z,8.07
2022-08-27T10:55:38.918Z,6.43
2022-08-27T11:02:12.201Z,6.07
2022-08-27T11:04:49.672Z,6.20
2022-08-27T11:07:43.281Z,5.82
2022-08-27T11:10:20.954Z,6.30
2022-08-27T11:12:51.888Z,6.25
2022-08-27T11:15:38.261Z,6.68
2022-08-27T11:18:41.001Z,5.60
2022-08-27T11:22:02.462Z,6.38
2022-08-27T11:27:43.524Z,4.38
2022-08-27T11:30:29.909Z,5.50
2022-08-27T11:33:02.728Z,5.38
2022-08-27T11:36:08.823Z,5.60
2022-08-27T11:39:02.007Z,5.63
2022-08-27T11:44:32.525Z,5.50
2022-08-27T11:47:24.911Z,4.88
2022-08-27T11:49:56.407Z,5.15
2022-08-27T11:53:09.197Z,4.78
2022-08-27T11:55:40.424Z,5.00
2022-08-27T11:58:26.543Z,5.90
2022-08-27T12:00:54.563Z,4.80
2022-08-27T12:03:21.951Z,5.85
2022-08-27T12:05:52.889Z,5.70
2022-08-27T12:08:22.995Z,4.72
2022-08-27T12:11:19.001Z,5.22
2022-08-27T12:14:11.187Z,4.93
2022-08-27T12:16:48.847Z,4.78
2022-08-27T12:19:44.276Z,4.38
2022-08-27T12:22:26.670Z,4.45
2022-08-27T12:25:20.298Z,5.55
2022-08-27T12:28:06.744Z,5.47
2022-08-27T12:30:35.503Z,4.85
2022-08-27T12:33:27.538Z,4.88
2022-08-27T12:36:13.740Z,4.30
2022-08-27T12:39:05.363Z,6.40
2022-08-27T12:41:44.278Z,5.28
2022-08-27T12:47:18.496Z,5.63
2022-08-27T12:49:55.883Z,5.53
2022-08-27T12:52:33.449Z,4.07
2022-08-27T12:55:16.858Z,5.50
2022-08-27T12:58:00.629Z,5.25
2022-08-27T13:00:37.970Z,5.05
2022-08-27T13:06:29.336Z,5.32
2022-08-27T13:09:13.451Z,5.25
2022-08-27T13:11:50.354Z,4.55
2022-08-27T13:14:20.677Z,5.10
2022-08-27T13:16:59.515Z,6.00
2022-08-27T13:19:32.131Z,5.78
2022-08-27T13:22:01.746Z,4.70
2022-08-27T13:24:45.803Z,5.60
2022-08-27T13:27:13.587Z,5.40
2022-08-27T13:29:42.710Z,4.68
2022-08-27T13:32:14.552Z,5.10
2022-08-27T13:34:42.504Z,4.97
2022-08-27T13:37:30.608Z,5.30
2022-08-27T13:40:10.105Z,4.50
2022-08-27T13:42:48.119Z,4.68
2022-08-27T13:45:17.960Z,5.25
2022-08-27T13:47:48.028Z,5.38
2022-08-27T13:50:25.824Z,4.85
2022-08-27T13:53:20.169Z,5.03
2022-08-27T13:55:49.793Z,4.80
2022-08-27T13:58:27.206Z,6.65
2022-08-27T14:00:55.867Z,4.68
2022-08-27T14:03:35.579Z,4.63
2022-08-27T14:06:03.167Z,4.75
2022-08-27T14:08:36.239Z,4.72
2022-08-27T14:11:13.080Z,4.75
2022-08-27T14:13:45.187Z,4.82
2022-08-27T14:16:23.938Z,4.35
2022-08-27T14:19:02.772Z,5.20
2022-08-27T14:21:35.713Z,4.65
2022-08-27T14:24:03.536Z,5.25
2022-08-27T14:28:59.473Z,5.05
2022-08-27T14:31:27.673Z,4.03
2022-08-27T14:33:56.126Z,4.85
2022-08-27T14:36:25.268Z,5.05
2022-08-27T14:38:52.951Z,5.32
2022-08-27T14:41:22.191Z,6.93
2022-08-27T14:55:21.434Z,5.40
2022-08-27T14:57:49.758Z,5.43
2022-08-27T15:01:02.561Z,5.53
2022-08-27T15:03:30.541Z,5.20
2022-08-27T15:05:57.670Z,5.80
2022-08-27T15:08:29.079Z,5.22
2022-08-27T15:14:11.590Z,4.65
2022-08-27T15:16:47.009Z,5.07
2022-08-27T15:19:20.531Z,3.80
2022-08-27T15:21:50.536Z,4.80
2022-08-27T15:24:26.473Z,4.80
2022-08-27T15:27:01.842Z,4.53
2022-08-27T15:31:57.445Z,3.90
2022-08-27T15:34:24.939Z,3.92
2022-08-27T15:36:52.090Z,4.47
2022-08-27T15:39:19.685Z,4.15
2022-08-27T15:42:05.164Z,4.75
2022-08-27T15:44:33.929Z,4.78
2022-08-27T15:47:00.982Z,4.45
2022-08-27T15:49:28.455Z,4.28
2022-08-27T15:51:55.989Z,4.90
2022-08-27T15:54:27.145Z,5.65
2022-08-27T15:56:54.475Z,5.25
2022-08-27T15:59:21.789Z,5.82
2022-08-27T16:01:49.009Z,5.35
2022-08-27T16:04:16.348Z,6.28
2022-08-27T16:06:43.759Z,6.05
2022-08-27T16:09:11.772Z,5.30
2022-08-27T16:11:41.154Z,6.47
2022-08-27T16:14:11.487Z,4.90
2022-08-27T16:16:40.419Z,4.65
2022-08-27T16:19:12.577Z,5.53
2022-08-27T16:21:48.246Z,5.63
2022-08-27T16:24:21.698Z,5.75
2022-08-27T16:26:50.579Z,5.75
2022-08-27T16:29:17.999Z,5.63
2022-08-27T16:31:49.877Z,5.70
2022-08-27T16:34:21.673Z,5.53
2022-08-27T16:36:48.812Z,5.05
2022-08-27T16:39:15.833Z,5.43
2022-08-27T16:41:50.534Z,5.65
2022-08-27T16:44:18.527Z,5.35
2022-08-27T16:46:45.981Z,5.82
2022-08-27T16:49:31.670Z,6.28
2022-08-27T16:52:01.486Z,6.53
2022-08-27T16:54:29.189Z,5.55
2022-08-27T16:56:59.266Z,5.82
2022-08-27T16:59:26.793Z,5.65
2022-08-27T17:02:07.436Z,6.75
2022-08-27T17:04:41.878Z,7.75
2022-08-27T17:07:09.725Z,6.97
2022-08-27T17:12:37.369Z,6.75
2022-08-27T17:15:08.460Z,7.78
2022-08-27T17:17:38.529Z,6.70
2022-08-27T17:20:08.559Z,7.65
2022-08-27T17:22:35.905Z,7.72
2022-08-27T17:25:04.057Z,6.85
2022-08-27T17:27:31.575Z,6.85
2022-08-27T17:29:58.712Z,6.78
2022-08-27T17:32:26.785Z,7.63
2022-08-27T17:34:54.324Z,6.70
2022-08-27T17:37:21.553Z,7.15
2022-08-27T17:39:49.176Z,6.75
2022-08-27T17:42:17.963Z,6.45
2022-08-27T17:44:44.920Z,6.78
2022-08-27T17:47:12.518Z,8.50
2022-08-27T17:49:39.898Z,9.07
2022-08-27T17:52:13.367Z,8.73
2022-08-27T17:54:45.999Z,8.07
2022-08-27T17:57:25.751Z,8.13
2022-08-27T17:59:54.579Z,8.90
2022-08-27T18:02:38.982Z,10.50
2022-08-27T18:05:09.036Z,9.68
2022-08-27T18:07:39.810Z,8.65
2022-08-27T18:10:12.646Z,9.20
2022-08-27T18:12:41.331Z,14.10
2022-08-27T18:15:28.071Z,9.00
2022-08-27T18:17:59.252Z,6.68
2022-08-27T18:20:42.734Z,7.10
2022-08-27T18:23:14.656Z,8.95
2022-08-27T18:25:46.140Z,8.98
2022-08-27T18:28:16.312Z,16.50
2022-08-27T18:30:44.889Z,10.15
2022-08-27T18:33:13.105Z,11.77
2022-08-27T18:35:42.266Z,9.10
2022-08-27T18:38:10.259Z,9.93
2022-08-27T18:40:44.243Z,10.52
2022-08-27T18:43:15.990Z,10.93
2022-08-27T18:45:43.479Z,14.85
2022-08-27T18:48:16.875Z,9.48
2022-08-27T18:50:50.708Z,10.65
2022-08-27T18:53:21.636Z,11.02
2022-08-27T18:55:52.287Z,9.98
2022-08-27T18:58:32.202Z,9.43
2022-08-27T19:01:03.425Z,10.05
2022-08-27T19:03:36.627Z,10.55
2022-08-27T19:06:08.697Z,9.70
2022-08-27T19:08:39.869Z,10.25
2022-08-27T19:11:07.466Z,9.02
2022-08-27T19:13:34.738Z,9.25
2022-08-27T19:16:08.509Z,9.57
2022-08-27T19:18:38.311Z,8.40
2022-08-27T19:21:07.434Z,8.85
2022-08-27T19:23:36.435Z,9.45
2022-08-27T19:26:05.553Z,8.75
2022-08-27T19:28:39.534Z,9.55
2022-08-27T19:31:08.495Z,9.73
2022-08-27T19:33:36.652Z,10.18
2022-08-27T19:36:05.509Z,9.73
2022-08-27T19:38:34.301Z,10.70
2022-08-27T19:41:02.882Z,9.73
2022-08-27T19:43:30.645Z,8.60
2022-08-27T19:45:59.800Z,8.95
2022-08-27T19:48:26.847Z,9.95
2022-08-27T19:50:53.977Z,13.20
2022-08-27T19:53:21.281Z,10.20
2022-08-27T19:55:49.137Z,11.02
2022-08-27T19:58:18.944Z,11.20
2022-08-27T20:00:47.166Z,8.95
2022-08-27T20:03:15.877Z,10.77
2022-08-27T20:05:48.360Z,8.93
2022-08-27T20:08:16.618Z,10.63
2022-08-27T20:10:46.589Z,10.23
2022-08-27T20:13:13.969Z,9.25
2022-08-27T20:15:41.573Z,9.00
2022-08-27T20:18:10.391Z,9.80
2022-08-27T20:20:38.115Z,9.80
2022-08-27T20:23:06.849Z,11.38
2022-08-27T20:25:35.408Z,9.77
2022-08-27T20:28:12.435Z,9.10
2022-08-27T20:30:49.473Z,9.63
2022-08-27T20:33:16.940Z,10.93
2022-08-27T20:35:44.719Z,12.18
2022-08-27T20:38:12.049Z,12.48
2022-08-27T20:40:39.253Z,11.88
2022-08-27T20:43:06.350Z,13.02
2022-08-27T20:45:35.748Z,10.85
2022-08-27T20:48:04.818Z,12.23
2022-08-27T20:50:31.801Z,12.23
2022-08-27T20:52:59.176Z,11.65
2022-08-27T20:55:26.300Z,12.40
2022-08-27T20:58:11.848Z,11.93
2022-08-27T21:00:41.713Z,11.57
2022-08-27T21:03:11.669Z,12.35
2022-08-27T21:05:41.518Z,11.60
2022-08-27T21:08:08.932Z,10.80
2022-08-27T21:10:36.042Z,7.65
2022-08-27T21:13:07.346Z,7.82
2022-08-27T21:15:37.148Z,7.45
2022-08-27T21:18:04.251Z,8.43
2022-08-27T21:20:32.419Z,8.20
2022-08-27T21:23:00.353Z,7.88
2022-08-27T21:25:27.822Z,7.82
2022-08-27T21:28:00.441Z,9.05
2022-08-27T21:30:28.405Z,8.15
2022-08-27T21:32:56.156Z,8.05
2022-08-27T21:35:26.640Z,7.50
2022-08-27T21:37:59.316Z,7.53
2022-08-27T21:40:28.414Z,8.27
2022-08-27T21:42:58.434Z,9.77
2022-08-27T21:45:27.120Z,8.52
2022-08-27T21:48:18.484Z,8.43
2022-08-27T21:50:46.275Z,8.68
2022-08-27T21:53:13.497Z,7.78
2022-08-27T21:55:40.514Z,7.68
2022-08-27T21:58:10.850Z,7.43
2022-08-27T22:00:45.952Z,7.35
2022-08-27T22:03:20.160Z,7.18
2022-08-27T22:05:48.977Z,7.20
2022-08-27T22:08:20.139Z,6.82
2022-08-27T22:10:49.706Z,8.05
2022-08-27T22:13:17.019Z,9.18
2022-08-27T22:15:45.664Z,7.85
2022-08-27T22:18:13.528Z,8.38
2022-08-27T22:20:41.432Z,10.20
2022-08-27T22:23:11.540Z,6.75
2022-08-27T22:25:39.371Z,7.90
2022-08-27T22:28:06.392Z,10.85
2022-08-27T22:30:34.239Z,9.25
2022-08-27T22:33:02.013Z,9.25
2022-08-27T22:35:29.249Z,9.32
2022-08-27T22:37:56.549Z,8.85
2022-08-27T22:40:26.506Z,9.10
2022-08-27T22:42:56.252Z,9.20
2022-08-27T22:45:24.471Z,9.25
2022-08-27T22:47:51.498Z,9.20
2022-08-27T22:50:18.728Z,8.93
2022-08-27T22:52:46.560Z,9.02
2022-08-27T22:55:18.851Z,6.75
2022-08-27T22:57:51.182Z,7.70
2022-08-27T23:00:23.657Z,8.55
2022-08-27T23:02:50.811Z,8.38
2022-08-27T23:05:18.579Z,8.38
2022-08-27T23:07:47.355Z,9.15
2022-08-27T23:10:17.465Z,8.32
2022-08-27T23:12:46.700Z,8.13
2022-08-27T23:15:16.671Z,8.35
2022-08-27T23:17:44.581Z,9.10
2022-08-27T23:20:14.510Z,7.45
2022-08-27T23:22:42.541Z,8.80
2022-08-27T23:25:30.136Z,7.60
2022-08-27T23:27:59.747Z,8.63
2022-08-27T23:30:28.198Z,8.23
2022-08-27T23:32:55.803Z,9.23
2022-08-27T23:35:25.181Z,8.38
2022-08-27T23:37:53.079Z,8.23
2022-08-27T23:40:21.378Z,8.18
2022-08-27T23:42:49.835Z,8.45
2022-08-27T23:45:21.495Z,10.05
2022-08-27T23:47:48.869Z,8.85
2022-08-27T23:50:16.619Z,8.90
2022-08-27T23:52:44.072Z,9.70
2022-08-27T23:55:12.041Z,9.75
2022-08-27T23:57:39.953Z,9.57
